<?xml version='1.0' encoding='UTF-8'?><gpx version="1.1" creator="JPX - https://github.com/jenetics/jpx" xmlns="http://www.topografix.com/GPX/1/1"><trk><trkseg><trkpt lat="37.467764645001104" lon="14.07648734515238"><ele>534.0000000000001</ele><time>2026-04-15T08:32:00Z</time></trkpt><trkpt lat="37.46770097964264" lon="14.076527252951852"><ele>534.0</ele><time>2026-04-15T08:32:07Z</time></trkpt><trkpt lat="37.467650234446715" lon="14.076585956219487"><ele>534.0</ele><time>2026-04-15T08:32:12Z</time></trkpt><trkpt lat="37.46759348955259" lon="14.076636495612995"><ele>534.0</ele><time>2026-04-15T08:32:17Z</time></trkpt><trkpt lat="37.46754171906436" lon="14.076698878755026"><ele>534.0</ele><time>2026-04-15T08:32:23Z</time></trkpt><trkpt lat="37.4674856076031" lon="14.076757895953653"><ele>534.0000000000001</ele><time>2026-04-15T08:32:30Z</time></trkpt><trkpt lat="37.46744566685607" lon="14.076823025366235"><ele>534.0</ele><time>2026-04-15T08:32:35Z</time></trkpt><trkpt lat="37.467387860175485" lon="14.076878988772979"><ele>533.4285714285714</ele><time>2026-04-15T08:32:41Z</time></trkpt><trkpt lat="37.46734552361122" lon="14.07694662468729"><ele>532.8571428571429</ele><time>2026-04-15T08:32:46Z</time></trkpt><trkpt lat="37.467307035929224" lon="14.077016216062743"><ele>532.2857142857142</ele><time>2026-04-15T08:32:51Z</time></trkpt><trkpt lat="37.46726248970475" lon="14.077072336955796"><ele>531.7142857142858</ele><time>2026-04-15T08:32:56Z</time></trkpt><trkpt lat="37.46721499170817" lon="14.077135700912256"><ele>531.1428571428571</ele><time>2026-04-15T08:33:01Z</time></trkpt><trkpt lat="37.467188680975646" lon="14.077219644831485"><ele>530.5714285714286</ele><time>2026-04-15T08:33:08Z</time></trkpt><trkpt lat="37.46714939608471" lon="14.077283373318103"><ele>530.0</ele><time>2026-04-15T08:33:14Z</time></trkpt><trkpt lat="37.46710192500333" lon="14.077343415764233"><ele>529.9999999999999</ele><time>2026-04-15T08:33:19Z</time></trkpt><trkpt lat="37.46709921929435" lon="14.077434906939887"><ele>530.0</ele><time>2026-04-15T08:33:24Z</time></trkpt><trkpt lat="37.467081438787666" lon="14.077516771300319"><ele>530.0</ele><time>2026-04-15T08:33:30Z</time></trkpt><trkpt lat="37.467087196389606" lon="14.077601420949648"><ele>530.0</ele><time>2026-04-15T08:33:36Z</time></trkpt><trkpt lat="37.46709690518889" lon="14.077683562774533"><ele>530.0</ele><time>2026-04-15T08:33:40Z</time></trkpt><trkpt lat="37.46706315418403" lon="14.077762948774842"><ele>529.9999999999999</ele><time>2026-04-15T08:33:45Z</time></trkpt><trkpt lat="37.46699534551466" lon="14.077804982598805"><ele>530.0</ele><time>2026-04-15T08:33:51Z</time></trkpt><trkpt lat="37.46692550835092" lon="14.077840378006904"><ele>528.8571428571428</ele><time>2026-04-15T08:34:01Z</time></trkpt><trkpt lat="37.466859857273555" lon="14.077881443623317"><ele>527.7142857142857</ele><time>2026-04-15T08:34:07Z</time></trkpt><trkpt lat="37.46680973158804" lon="14.077932439043312"><ele>526.5714285714286</ele><time>2026-04-15T08:34:12Z</time></trkpt><trkpt lat="37.46676413514344" lon="14.07799388816342"><ele>525.4285714285713</ele><time>2026-04-15T08:34:17Z</time></trkpt><trkpt lat="37.46670737469462" lon="14.078057287420895"><ele>524.2857142857142</ele><time>2026-04-15T08:34:22Z</time></trkpt><trkpt lat="37.46667248517712" lon="14.078141962120508"><ele>523.1428571428571</ele><time>2026-04-15T08:34:27Z</time></trkpt><trkpt lat="37.46663969796041" lon="14.078224437608409"><ele>522.0</ele><time>2026-04-15T08:34:33Z</time></trkpt><trkpt lat="37.46666815368828" lon="14.078301493178866"><ele>522.0</ele><time>2026-04-15T08:34:38Z</time></trkpt><trkpt lat="37.4666986081869" lon="14.07838309285089"><ele>522.0</ele><time>2026-04-15T08:34:44Z</time></trkpt><trkpt lat="37.46676622413912" lon="14.078400861490975"><ele>522.0</ele><time>2026-04-15T08:35:04Z</time></trkpt><trkpt lat="37.46681635401388" lon="14.078340785233323"><ele>522.0</ele><time>2026-04-15T08:35:21Z</time></trkpt><trkpt lat="37.46682309076616" lon="14.07825153730948"><ele>522.0</ele><time>2026-04-15T08:35:28Z</time></trkpt><trkpt lat="37.466818843676855" lon="14.078165534797593"><ele>522.0</ele><time>2026-04-15T08:35:35Z</time></trkpt><trkpt lat="37.46682941310764" lon="14.078069960286703"><ele>522.0</ele><time>2026-04-15T08:35:42Z</time></trkpt><trkpt lat="37.46685795023884" lon="14.077993529779699"><ele>522.0</ele><time>2026-04-15T08:35:50Z</time></trkpt><trkpt lat="37.466924917422226" lon="14.077986485653598"><ele>522.0</ele><time>2026-04-15T08:35:57Z</time></trkpt><trkpt lat="37.46697674823196" lon="14.078036172599019"><ele>522.0</ele><time>2026-04-15T08:36:02Z</time></trkpt><trkpt lat="37.46697550301041" lon="14.078120060736342"><ele>522.0</ele><time>2026-04-15T08:36:09Z</time></trkpt><trkpt lat="37.46695196806" lon="14.078203020569724"><ele>522.0</ele><time>2026-04-15T08:36:15Z</time></trkpt><trkpt lat="37.466945484256534" lon="14.078294941864419"><ele>522.0</ele><time>2026-04-15T08:36:22Z</time></trkpt><trkpt lat="37.466937374564" lon="14.078381645931426"><ele>522.0</ele><time>2026-04-15T08:36:29Z</time></trkpt><trkpt lat="37.46691715817912" lon="14.078468627453924"><ele>521.2857142857143</ele><time>2026-04-15T08:36:34Z</time></trkpt><trkpt lat="37.466889480984136" lon="14.07855435436125"><ele>520.5714285714286</ele><time>2026-04-15T08:36:40Z</time></trkpt><trkpt lat="37.46688484201765" lon="14.078642508618499"><ele>519.8571428571429</ele><time>2026-04-15T08:36:47Z</time></trkpt><trkpt lat="37.466940827356936" lon="14.078681499341432"><ele>519.1428571428571</ele><time>2026-04-15T08:37:01Z</time></trkpt><trkpt lat="37.46700358672154" lon="14.078668078179525"><ele>518.4285714285714</ele><time>2026-04-15T08:37:42Z</time></trkpt><trkpt lat="37.467072291526655" lon="14.078653519590974"><ele>517.7142857142858</ele><time>2026-04-15T08:37:48.001Z</time></trkpt><trkpt lat="37.467099012155295" lon="14.078566721739751"><ele>517.0</ele><time>2026-04-15T08:37:54.001Z</time></trkpt><trkpt lat="37.46709270722179" lon="14.078478008345533"><ele>517.0</ele><time>2026-04-15T08:38:06.001Z</time></trkpt><trkpt lat="37.46707327933108" lon="14.07839679412845"><ele>517.0</ele><time>2026-04-15T08:38:13Z</time></trkpt><trkpt lat="37.467099613317664" lon="14.078317312485707"><ele>517.0</ele><time>2026-04-15T08:38:19Z</time></trkpt><trkpt lat="37.46715459292739" lon="14.078272911540166"><ele>517.0</ele><time>2026-04-15T08:38:26Z</time></trkpt><trkpt lat="37.467230769636686" lon="14.078250067443285"><ele>517.0</ele><time>2026-04-15T08:38:32Z</time></trkpt><trkpt lat="37.46729126485229" lon="14.078287580601048"><ele>517.0</ele><time>2026-04-15T08:38:37Z</time></trkpt><trkpt lat="37.46731609799224" lon="14.078368844149729"><ele>517.0</ele><time>2026-04-15T08:38:43Z</time></trkpt><trkpt lat="37.46731372292683" lon="14.078450036114589"><ele>517.0</ele><time>2026-04-15T08:38:49Z</time></trkpt><trkpt lat="37.46729394348909" lon="14.078528971288621"><ele>517.0</ele><time>2026-04-15T08:38:53Z</time></trkpt><trkpt lat="37.46735548190326" lon="14.078547842251686"><ele>517.0</ele><time>2026-04-15T08:39:00Z</time></trkpt><trkpt lat="37.46740078031806" lon="14.07848134363353"><ele>517.0</ele><time>2026-04-15T08:39:06Z</time></trkpt><trkpt lat="37.4674329979669" lon="14.078409949527522"><ele>517.0</ele><time>2026-04-15T08:39:14Z</time></trkpt><trkpt lat="37.46744621946473" lon="14.078328377594831"><ele>517.0</ele><time>2026-04-15T08:39:23Z</time></trkpt><trkpt lat="37.46745057836835" lon="14.078242527280901"><ele>517.0</ele><time>2026-04-15T08:39:31Z</time></trkpt><trkpt lat="37.4674369117838" lon="14.078163400032565"><ele>517.0</ele><time>2026-04-15T08:39:39Z</time></trkpt><trkpt lat="37.46743490275825" lon="14.078083118442233"><ele>517.0</ele><time>2026-04-15T08:39:46Z</time></trkpt><trkpt lat="37.46741581788533" lon="14.078003358216542"><ele>517.0</ele><time>2026-04-15T08:39:54Z</time></trkpt><trkpt lat="37.46737808800668" lon="14.077931187746254"><ele>517.0</ele><time>2026-04-15T08:40:00Z</time></trkpt><trkpt lat="37.467314854039" lon="14.077924532945612"><ele>517.0</ele><time>2026-04-15T08:40:09.001Z</time></trkpt><trkpt lat="37.467255222585386" lon="14.077950593728303"><ele>517.0</ele><time>2026-04-15T08:40:25Z</time></trkpt><trkpt lat="37.46719581411385" lon="14.077988424809307"><ele>517.0</ele><time>2026-04-15T08:40:31Z</time></trkpt><trkpt lat="37.46712805848881" lon="14.07800391784221"><ele>517.0</ele><time>2026-04-15T08:40:38Z</time></trkpt><trkpt lat="37.46712794945066" lon="14.077915995624178"><ele>517.0</ele><time>2026-04-15T08:40:46Z</time></trkpt><trkpt lat="37.46715622364972" lon="14.077828221547305"><ele>517.0</ele><time>2026-04-15T08:40:53Z</time></trkpt><trkpt lat="37.46718976167549" lon="14.077744607377095"><ele>517.0</ele><time>2026-04-15T08:41:02Z</time></trkpt><trkpt lat="37.46720592050721" lon="14.07766746054176"><ele>517.0</ele><time>2026-04-15T08:41:08Z</time></trkpt><trkpt lat="37.467216561279194" lon="14.077587129097536"><ele>517.0</ele><time>2026-04-15T08:41:15Z</time></trkpt><trkpt lat="37.46723939469152" lon="14.077499439836263"><ele>517.0</ele><time>2026-04-15T08:41:22Z</time></trkpt><trkpt lat="37.46724389220411" lon="14.077407096699844"><ele>518.1428571428571</ele><time>2026-04-15T08:41:29Z</time></trkpt><trkpt lat="37.46727703385194" lon="14.077331963330991"><ele>519.2857142857143</ele><time>2026-04-15T08:41:37Z</time></trkpt><trkpt lat="37.46731431913605" lon="14.07725414943252"><ele>520.4285714285714</ele><time>2026-04-15T08:41:44Z</time></trkpt><trkpt lat="37.46734892413481" lon="14.077186768286442"><ele>521.5714285714286</ele><time>2026-04-15T08:41:50Z</time></trkpt><trkpt lat="37.46738868177523" lon="14.077122751839255"><ele>522.7142857142858</ele><time>2026-04-15T08:41:56Z</time></trkpt><trkpt lat="37.46742374214513" lon="14.077042110778276"><ele>523.8571428571429</ele><time>2026-04-15T08:42:03Z</time></trkpt><trkpt lat="37.46747015508155" lon="14.076979753770026"><ele>525.0</ele><time>2026-04-15T08:42:09.001Z</time></trkpt><trkpt lat="37.467532002741805" lon="14.07690486411971"><ele>525.0</ele><time>2026-04-15T08:42:18Z</time></trkpt><trkpt lat="37.46759661669688" lon="14.076950435223294"><ele>525.0</ele><time>2026-04-15T08:42:43Z</time></trkpt><trkpt lat="37.467659913160595" lon="14.07698123414367"><ele>525.0</ele><time>2026-04-15T08:42:48Z</time></trkpt><trkpt lat="37.467702193175015" lon="14.077054889102406"><ele>525.0</ele><time>2026-04-15T08:42:54Z</time></trkpt><trkpt lat="37.46775657604788" lon="14.077118959831994"><ele>525.0</ele><time>2026-04-15T08:42:59Z</time></trkpt><trkpt lat="37.46778511801456" lon="14.077203963411803"><ele>525.0</ele><time>2026-04-15T08:43:04Z</time></trkpt><trkpt lat="37.46785263179759" lon="14.077228132433811"><ele>525.0</ele><time>2026-04-15T08:43:09Z</time></trkpt><trkpt lat="37.46787258529492" lon="14.077312459718296"><ele>525.0</ele><time>2026-04-15T08:43:15Z</time></trkpt><trkpt lat="37.46790008256822" lon="14.077397157068221"><ele>525.0</ele><time>2026-04-15T08:43:23Z</time></trkpt><trkpt lat="37.46786935806881" lon="14.077473508144688"><ele>525.0</ele><time>2026-04-15T08:43:29Z</time></trkpt><trkpt lat="37.46780433652739" lon="14.077486451883026"><ele>525.0</ele><time>2026-04-15T08:43:34Z</time></trkpt><trkpt lat="37.46776313500896" lon="14.077425546052538"><ele>525.0</ele><time>2026-04-15T08:43:40Z</time></trkpt><trkpt lat="37.467714703672" lon="14.077367069358672"><ele>525.0</ele><time>2026-04-15T08:43:47Z</time></trkpt><trkpt lat="37.46766494871233" lon="14.077305855409305"><ele>525.0</ele><time>2026-04-15T08:43:55Z</time></trkpt><trkpt lat="37.46760326623359" lon="14.077254345997321"><ele>525.0</ele><time>2026-04-15T08:44:02Z</time></trkpt><trkpt lat="37.46753797536089" lon="14.077233326366041"><ele>525.0</ele><time>2026-04-15T08:44:10Z</time></trkpt><trkpt lat="37.46747925689532" lon="14.077262392288292"><ele>525.0</ele><time>2026-04-15T08:44:17Z</time></trkpt><trkpt lat="37.46741628964031" lon="14.077321156985363"><ele>525.0</ele><time>2026-04-15T08:44:24Z</time></trkpt><trkpt lat="37.46738768366664" lon="14.077395783432713"><ele>525.0</ele><time>2026-04-15T08:44:31Z</time></trkpt><trkpt lat="37.46736704237751" lon="14.077477619788533"><ele>525.0</ele><time>2026-04-15T08:44:37Z</time></trkpt><trkpt lat="37.467359945555486" lon="14.077568423459379"><ele>525.0</ele><time>2026-04-15T08:44:43Z</time></trkpt><trkpt lat="37.46735795459763" lon="14.077648303962526"><ele>523.8571428571429</ele><time>2026-04-15T08:44:48Z</time></trkpt><trkpt lat="37.467355500296186" lon="14.077734321908851"><ele>522.7142857142858</ele><time>2026-04-15T08:44:54Z</time></trkpt><trkpt lat="37.467388530774336" lon="14.07781787378801"><ele>521.5714285714286</ele><time>2026-04-15T08:45:01Z</time></trkpt><trkpt lat="37.467424215173715" lon="14.07789539349113"><ele>520.4285714285714</ele><time>2026-04-15T08:45:08Z</time></trkpt><trkpt lat="37.467457345778875" lon="14.077970820731204"><ele>519.2857142857143</ele><time>2026-04-15T08:45:14Z</time></trkpt><trkpt lat="37.467502836294656" lon="14.07803937642743"><ele>518.1428571428571</ele><time>2026-04-15T08:45:21Z</time></trkpt><trkpt lat="37.467536715446286" lon="14.078107737255788"><ele>517.0</ele><time>2026-04-15T08:45:27Z</time></trkpt><trkpt lat="37.46757099660851" lon="14.07817614534891"><ele>517.0</ele><time>2026-04-15T08:45:33Z</time></trkpt><trkpt lat="37.46764249019812" lon="14.078212587533011"><ele>517.0</ele><time>2026-04-15T08:45:39Z</time></trkpt><trkpt lat="37.46771252249385" lon="14.078230551976166"><ele>517.0</ele><time>2026-04-15T08:45:45Z</time></trkpt><trkpt lat="37.46776786064961" lon="14.07818473552618"><ele>517.0</ele><time>2026-04-15T08:45:50Z</time></trkpt><trkpt lat="37.4677945708825" lon="14.078112881028781"><ele>517.0</ele><time>2026-04-15T08:45:55Z</time></trkpt><trkpt lat="37.46783997682227" lon="14.078043416152108"><ele>517.0</ele><time>2026-04-15T08:46:02Z</time></trkpt><trkpt lat="37.467879953791275" lon="14.077976481986006"><ele>517.0</ele><time>2026-04-15T08:46:09Z</time></trkpt><trkpt lat="37.46792687880895" lon="14.077914436323068"><ele>517.0</ele><time>2026-04-15T08:46:16Z</time></trkpt><trkpt lat="37.46788758150942" lon="14.07784285329505"><ele>517.0</ele><time>2026-04-15T08:46:26Z</time></trkpt><trkpt lat="37.46781085894168" lon="14.077844674871786"><ele>517.0</ele><time>2026-04-15T08:46:31Z</time></trkpt><trkpt lat="37.46774162805491" lon="14.077848688859747"><ele>517.0</ele><time>2026-04-15T08:46:39Z</time></trkpt><trkpt lat="37.467678491882786" lon="14.07782865750162"><ele>517.0</ele><time>2026-04-15T08:46:46Z</time></trkpt><trkpt lat="37.46761894442551" lon="14.0777885795138"><ele>517.0</ele><time>2026-04-15T08:46:53Z</time></trkpt><trkpt lat="37.46761151903545" lon="14.077709251233047"><ele>517.0</ele><time>2026-04-15T08:47:00Z</time></trkpt><trkpt lat="37.46759700721291" lon="14.077631765209118"><ele>517.0</ele><time>2026-04-15T08:47:06Z</time></trkpt><trkpt lat="37.46764718824041" lon="14.077574638991205"><ele>517.0</ele><time>2026-04-15T08:47:14Z</time></trkpt><trkpt lat="37.46770764034172" lon="14.07754536706254"><ele>517.0</ele><time>2026-04-15T08:47:20Z</time></trkpt><trkpt lat="37.46777055739989" lon="14.077576082626631"><ele>517.0</ele><time>2026-04-15T08:47:58Z</time></trkpt><trkpt lat="37.467833648680504" lon="14.07758620843699"><ele>517.0</ele><time>2026-04-15T08:48:01Z</time></trkpt><trkpt lat="37.467890063029365" lon="14.077651057499553"><ele>517.0</ele><time>2026-04-15T08:48:09Z</time></trkpt><trkpt lat="37.46797669789324" lon="14.077701238993203"><ele>517.0</ele><time>2026-04-15T08:48:17Z</time></trkpt><trkpt lat="37.46802399378624" lon="14.077762578488198"><ele>516.2857142857143</ele><time>2026-04-15T08:48:24Z</time></trkpt><trkpt lat="37.468089038856434" lon="14.07779175949536"><ele>515.5714285714287</ele><time>2026-04-15T08:48:30.999Z</time></trkpt><trkpt lat="37.46814347410245" lon="14.077841515391649"><ele>514.8571428571429</ele><time>2026-04-15T08:48:37.999Z</time></trkpt><trkpt lat="37.46819861187543" lon="14.077903867679696"><ele>514.1428571428571</ele><time>2026-04-15T08:48:45.999Z</time></trkpt><trkpt lat="37.46825936053582" lon="14.0779549908866"><ele>513.4285714285713</ele><time>2026-04-15T08:48:52.999Z</time></trkpt><trkpt lat="37.46831334177855" lon="14.077998554175613"><ele>512.7142857142857</ele><time>2026-04-15T08:48:58.999Z</time></trkpt><trkpt lat="37.468350496390684" lon="14.07807132640613"><ele>512.0</ele><time>2026-04-15T08:49:05.999Z</time></trkpt><trkpt lat="37.46835687804039" lon="14.078152962221376"><ele>512.0</ele><time>2026-04-15T08:49:12Z</time></trkpt><trkpt lat="37.46831936501469" lon="14.078227935828833"><ele>511.99999999999994</ele><time>2026-04-15T08:49:18Z</time></trkpt><trkpt lat="37.46828505767261" lon="14.078294485788662"><ele>512.0</ele><time>2026-04-15T08:49:23Z</time></trkpt><trkpt lat="37.468253363303866" lon="14.078366146565319"><ele>512.0</ele><time>2026-04-15T08:49:29Z</time></trkpt><trkpt lat="37.4682025088894" lon="14.07844137370115"><ele>511.99999999999994</ele><time>2026-04-15T08:49:36Z</time></trkpt><trkpt lat="37.468160562880435" lon="14.078500820691279"><ele>512.0</ele><time>2026-04-15T08:49:42Z</time></trkpt><trkpt lat="37.4681169241833" lon="14.078561370636637"><ele>512.0</ele><time>2026-04-15T08:49:48Z</time></trkpt><trkpt lat="37.468094340573565" lon="14.078636814126945"><ele>511.1428571428571</ele><time>2026-04-15T08:49:58Z</time></trkpt><trkpt lat="37.46807197166825" lon="14.078722802916822"><ele>510.2857142857142</ele><time>2026-04-15T08:50:04Z</time></trkpt><trkpt lat="37.46812614224288" lon="14.078769042237239"><ele>509.42857142857144</ele><time>2026-04-15T08:50:12Z</time></trkpt><trkpt lat="37.468184477301435" lon="14.07880346687111"><ele>508.57142857142856</ele><time>2026-04-15T08:50:18Z</time></trkpt><trkpt lat="37.468262282359106" lon="14.078812942177478"><ele>507.7142857142857</ele><time>2026-04-15T08:50:24Z</time></trkpt><trkpt lat="37.46830652728406" lon="14.078874057429687"><ele>506.8571428571429</ele><time>2026-04-15T08:50:31Z</time></trkpt><trkpt lat="37.468365251305116" lon="14.07891626915446"><ele>506.00000000000006</ele><time>2026-04-15T08:50:34.999Z</time></trkpt><trkpt lat="37.468395166968904" lon="14.078994982389755"><ele>506.00000000000006</ele><time>2026-04-15T08:50:53Z</time></trkpt><trkpt lat="37.46843058335152" lon="14.07906441180728"><ele>506.0</ele><time>2026-04-15T08:51:01Z</time></trkpt><trkpt lat="37.46847017593725" lon="14.07913790726265"><ele>506.00000000000006</ele><time>2026-04-15T08:51:09Z</time></trkpt><trkpt lat="37.468485248405734" lon="14.079229471037419"><ele>506.00000000000006</ele><time>2026-04-15T08:51:16Z</time></trkpt><trkpt lat="37.46851287935976" lon="14.079323170857352"><ele>506.0</ele><time>2026-04-15T08:51:34Z</time></trkpt><trkpt lat="37.46853565563545" lon="14.079401341556004"><ele>506.00000000000006</ele><time>2026-04-15T08:51:41Z</time></trkpt><trkpt lat="37.468562173513256" lon="14.079475637260455"><ele>506.00000000000006</ele><time>2026-04-15T08:51:48Z</time></trkpt><trkpt lat="37.46858851005605" lon="14.079549257830557"><ele>504.7142857142858</ele><time>2026-04-15T08:51:53Z</time></trkpt><trkpt lat="37.46859084597298" lon="14.079633713142753"><ele>503.42857142857144</ele><time>2026-04-15T08:52:01Z</time></trkpt><trkpt lat="37.46864550301186" lon="14.079684268626567"><ele>502.14285714285717</ele><time>2026-04-15T08:52:06Z</time></trkpt><trkpt lat="37.46867706104836" lon="14.079758713868733"><ele>500.8571428571429</ele><time>2026-04-15T08:52:12Z</time></trkpt><trkpt lat="37.46871909989952" lon="14.079832476609756"><ele>499.57142857142856</ele><time>2026-04-15T08:52:18Z</time></trkpt><trkpt lat="37.46877970217514" lon="14.079893193091948"><ele>498.2857142857143</ele><time>2026-04-15T08:52:23Z</time></trkpt><trkpt lat="37.46884214604245" lon="14.07993878435539"><ele>497.0</ele><time>2026-04-15T08:52:29Z</time></trkpt><trkpt lat="37.46890791618923" lon="14.079965043300636"><ele>496.2857142857143</ele><time>2026-04-15T08:52:36Z</time></trkpt><trkpt lat="37.46897272283936" lon="14.079969351731544"><ele>495.57142857142856</ele><time>2026-04-15T08:52:50.998Z</time></trkpt><trkpt lat="37.469043681938366" lon="14.079939808231956"><ele>494.8571428571429</ele><time>2026-04-15T08:52:59.998Z</time></trkpt><trkpt lat="37.46909926253857" lon="14.0798899816297"><ele>494.14285714285717</ele><time>2026-04-15T08:53:09.999Z</time></trkpt><trkpt lat="37.469137063997934" lon="14.079820164211915"><ele>493.42857142857144</ele><time>2026-04-15T08:53:17.999Z</time></trkpt><trkpt lat="37.469094583392355" lon="14.079758208362362"><ele>492.7142857142858</ele><time>2026-04-15T08:53:38.999Z</time></trkpt><trkpt lat="37.46901737977419" lon="14.079765483244808"><ele>492.00000000000006</ele><time>2026-04-15T08:53:45.999Z</time></trkpt><trkpt lat="37.46894926979292" lon="14.07975276516611"><ele>492.00000000000006</ele><time>2026-04-15T08:53:52.999Z</time></trkpt><trkpt lat="37.468878802678574" lon="14.079740649330644"><ele>492.0</ele><time>2026-04-15T08:53:59.999Z</time></trkpt><trkpt lat="37.468810754654605" lon="14.079711620852306"><ele>492.00000000000006</ele><time>2026-04-15T08:54:06Z</time></trkpt><trkpt lat="37.4687581464949" lon="14.07966124395751"><ele>492.00000000000006</ele><time>2026-04-15T08:54:19Z</time></trkpt><trkpt lat="37.46871656998745" lon="14.079595993931724"><ele>492.0</ele><time>2026-04-15T08:54:28Z</time></trkpt><trkpt lat="37.46866897574308" lon="14.07952769068284"><ele>492.00000000000006</ele><time>2026-04-15T08:54:34Z</time></trkpt><trkpt lat="37.468627291229275" lon="14.079456194436489"><ele>492.00000000000006</ele><time>2026-04-15T08:54:42Z</time></trkpt><trkpt lat="37.46859902931174" lon="14.079378084589491"><ele>492.7142857142858</ele><time>2026-04-15T08:54:51.998Z</time></trkpt><trkpt lat="37.468573557580896" lon="14.079295231267299"><ele>493.42857142857144</ele><time>2026-04-15T08:55:01.999Z</time></trkpt><trkpt lat="37.46854032320879" lon="14.079214796449554"><ele>494.14285714285717</ele><time>2026-04-15T08:55:17Z</time></trkpt><trkpt lat="37.46850174708935" lon="14.079143009931897"><ele>494.8571428571429</ele><time>2026-04-15T08:55:27Z</time></trkpt><trkpt lat="37.46847616742756" lon="14.079065591932189"><ele>495.57142857142856</ele><time>2026-04-15T08:55:35Z</time></trkpt><trkpt lat="37.46844401087451" lon="14.07898537298581"><ele>496.2857142857143</ele><time>2026-04-15T08:55:43Z</time></trkpt><trkpt lat="37.46842621346842" lon="14.078899587773122"><ele>497.0</ele><time>2026-04-15T08:55:51Z</time></trkpt><trkpt lat="37.46839528499367" lon="14.078824037124873"><ele>498.2857142857143</ele><time>2026-04-15T08:55:59Z</time></trkpt><trkpt lat="37.46837909900979" lon="14.078738799378929"><ele>499.57142857142856</ele><time>2026-04-15T08:56:04Z</time></trkpt><trkpt lat="37.468355804011644" lon="14.078663739973793"><ele>500.8571428571429</ele><time>2026-04-15T08:56:10Z</time></trkpt><trkpt lat="37.46835201421279" lon="14.078581039238303"><ele>502.14285714285717</ele><time>2026-04-15T08:56:17.001Z</time></trkpt><trkpt lat="37.46836335416487" lon="14.078498081388792"><ele>503.42857142857144</ele><time>2026-04-15T08:56:43.001Z</time></trkpt><trkpt lat="37.46839232010805" lon="14.078418953306196"><ele>504.7142857142858</ele><time>2026-04-15T08:56:49.001Z</time></trkpt><trkpt lat="37.46840540867441" lon="14.078338399758414"><ele>506.00000000000006</ele><time>2026-04-15T08:56:55.999Z</time></trkpt><trkpt lat="37.468444610791984" lon="14.078272972587158"><ele>506.00000000000006</ele><time>2026-04-15T08:57:02Z</time></trkpt><trkpt lat="37.468484616671724" lon="14.078211670692165"><ele>506.0</ele><time>2026-04-15T08:57:08Z</time></trkpt><trkpt lat="37.46854257799793" lon="14.078159375405585"><ele>506.00000000000006</ele><time>2026-04-15T08:57:14Z</time></trkpt><trkpt lat="37.46860463991813" lon="14.07813452541129"><ele>506.00000000000006</ele><time>2026-04-15T08:57:22Z</time></trkpt><trkpt lat="37.46866580441535" lon="14.078168233290716"><ele>506.0</ele><time>2026-04-15T08:57:30Z</time></trkpt><trkpt lat="37.46870252458984" lon="14.078235075824885"><ele>506.00000000000006</ele><time>2026-04-15T08:57:35Z</time></trkpt><trkpt lat="37.46868917317748" lon="14.07831919814274"><ele>506.00000000000006</ele><time>2026-04-15T08:57:48.001Z</time></trkpt><trkpt lat="37.46864030146863" lon="14.07838906206331"><ele>506.00000000000006</ele><time>2026-04-15T08:57:53.001Z</time></trkpt><trkpt lat="37.4685762594533" lon="14.0784347718111"><ele>506.0</ele><time>2026-04-15T08:57:59.001Z</time></trkpt><trkpt lat="37.468518086492246" lon="14.078472738821205"><ele>506.00000000000006</ele><time>2026-04-15T08:58:05.001Z</time></trkpt><trkpt lat="37.468573631545524" lon="14.078521222262067"><ele>506.00000000000006</ele><time>2026-04-15T08:58:18.001Z</time></trkpt><trkpt lat="37.46863524197777" lon="14.078491290314167"><ele>506.0</ele><time>2026-04-15T08:58:24.001Z</time></trkpt><trkpt lat="37.468688390535895" lon="14.078442688511958"><ele>506.00000000000006</ele><time>2026-04-15T08:58:32.001Z</time></trkpt><trkpt lat="37.468752057554084" lon="14.078419885966841"><ele>506.00000000000006</ele><time>2026-04-15T08:58:40.001Z</time></trkpt><trkpt lat="37.468815295564454" lon="14.078397273982828"><ele>506.00000000000006</ele><time>2026-04-15T08:58:48.002Z</time></trkpt><trkpt lat="37.46888113017967" lon="14.078367657246208"><ele>506.0</ele><time>2026-04-15T08:58:57Z</time></trkpt><trkpt lat="37.46895477373488" lon="14.07833262420147"><ele>506.00000000000006</ele><time>2026-04-15T08:59:05Z</time></trkpt><trkpt lat="37.469006204833995" lon="14.078389934307893"><ele>506.00000000000006</ele><time>2026-04-15T08:59:13Z</time></trkpt><trkpt lat="37.46904474376207" lon="14.078486956804"><ele>506.0</ele><time>2026-04-15T08:59:20Z</time></trkpt><trkpt lat="37.469058464060474" lon="14.0785645880986"><ele>506.00000000000006</ele><time>2026-04-15T08:59:25Z</time></trkpt><trkpt lat="37.46909893662874" lon="14.078633342450567"><ele>506.00000000000006</ele><time>2026-04-15T08:59:30.001Z</time></trkpt><trkpt lat="37.46911335363935" lon="14.078732684409704"><ele>506.00000000000006</ele><time>2026-04-15T08:59:35.001Z</time></trkpt><trkpt lat="37.46913252047993" lon="14.078821557445414"><ele>506.0</ele><time>2026-04-15T08:59:40.001Z</time></trkpt><trkpt lat="37.469137081910795" lon="14.078905647654981"><ele>506.00000000000006</ele><time>2026-04-15T08:59:44.001Z</time></trkpt><trkpt lat="37.46908367563805" lon="14.07896652327062"><ele>506.00000000000006</ele><time>2026-04-15T08:59:49.001Z</time></trkpt><trkpt lat="37.469025224939706" lon="14.079011688276514"><ele>506.0</ele><time>2026-04-15T08:59:54.001Z</time></trkpt><trkpt lat="37.468964222826976" lon="14.079051641138253"><ele>506.00000000000006</ele><time>2026-04-15T09:00:00.001Z</time></trkpt><trkpt lat="37.468897474916446" lon="14.079080740957348"><ele>506.00000000000006</ele><time>2026-04-15T09:00:05.001Z</time></trkpt><trkpt lat="37.468837749180274" lon="14.079130122449364"><ele>506.00000000000006</ele><time>2026-04-15T09:00:11.001Z</time></trkpt><trkpt lat="37.46878193129565" lon="14.079084990005624"><ele>506.0</ele><time>2026-04-15T09:00:18.001Z</time></trkpt><trkpt lat="37.46876089342806" lon="14.078999789658347"><ele>506.00000000000006</ele><time>2026-04-15T09:00:24.001Z</time></trkpt><trkpt lat="37.46876323616874" lon="14.078908527975809"><ele>506.00000000000006</ele><time>2026-04-15T09:00:30.001Z</time></trkpt><trkpt lat="37.468787234218986" lon="14.078832665998894"><ele>506.0</ele><time>2026-04-15T09:00:36.002Z</time></trkpt><trkpt lat="37.468816085651504" lon="14.078758981114664"><ele>506.00000000000006</ele><time>2026-04-15T09:00:42.002Z</time></trkpt><trkpt lat="37.46884050925889" lon="14.078679331094799"><ele>506.00000000000006</ele><time>2026-04-15T09:00:49.002Z</time></trkpt><trkpt lat="37.46883861352349" lon="14.078599508516852"><ele>506.00000000000006</ele><time>2026-04-15T09:00:56.002Z</time></trkpt><trkpt lat="37.468780854556016" lon="14.078559871466206"><ele>506.0</ele><time>2026-04-15T09:01:02.001Z</time></trkpt><trkpt lat="37.46871719952306" lon="14.078551946192192"><ele>506.00000000000006</ele><time>2026-04-15T09:01:08.001Z</time></trkpt><trkpt lat="37.46867988363054" lon="14.078616707531586"><ele>506.00000000000006</ele><time>2026-04-15T09:01:13.001Z</time></trkpt><trkpt lat="37.4686553189564" lon="14.078701861260342"><ele>506.0</ele><time>2026-04-15T09:01:18.001Z</time></trkpt><trkpt lat="37.46861849785287" lon="14.07877675518395"><ele>506.00000000000006</ele><time>2026-04-15T09:01:23.001Z</time></trkpt><trkpt lat="37.468610290884925" lon="14.078863924838492"><ele>506.00000000000006</ele><time>2026-04-15T09:01:28.001Z</time></trkpt><trkpt lat="37.46859107759141" lon="14.078945355219252"><ele>506.00000000000006</ele><time>2026-04-15T09:01:33.001Z</time></trkpt><trkpt lat="37.468604370245394" lon="14.079025002454754"><ele>506.0</ele><time>2026-04-15T09:01:38.001Z</time></trkpt><trkpt lat="37.468620119489536" lon="14.079115080782787"><ele>506.00000000000006</ele><time>2026-04-15T09:01:43.001Z</time></trkpt><trkpt lat="37.468644221426764" lon="14.079206117366535"><ele>506.00000000000006</ele><time>2026-04-15T09:01:48.001Z</time></trkpt><trkpt lat="37.468690175627486" lon="14.079282916183223"><ele>506.0</ele><time>2026-04-15T09:01:53.001Z</time></trkpt><trkpt lat="37.46871856144689" lon="14.079357419670997"><ele>506.00000000000006</ele><time>2026-04-15T09:01:57.001Z</time></trkpt><trkpt lat="37.468755127525945" lon="14.079425433936134"><ele>506.00000000000006</ele><time>2026-04-15T09:02:01.001Z</time></trkpt><trkpt lat="37.46880444101285" lon="14.07949972040141"><ele>504.00000000000006</ele><time>2026-04-15T09:02:06.001Z</time></trkpt><trkpt lat="37.46886398714063" lon="14.079527081184706"><ele>502.0</ele><time>2026-04-15T09:02:10.001Z</time></trkpt><trkpt lat="37.46892728903323" lon="14.079581726470705"><ele>500.00000000000006</ele><time>2026-04-15T09:02:16.001Z</time></trkpt><trkpt lat="37.46899370712888" lon="14.07961021780939"><ele>498.00000000000006</ele><time>2026-04-15T09:02:21.001Z</time></trkpt><trkpt lat="37.46906056507265" lon="14.079628041524893"><ele>496.0</ele><time>2026-04-15T09:02:26.001Z</time></trkpt><trkpt lat="37.46912413049643" lon="14.079638047636697"><ele>494.00000000000006</ele><time>2026-04-15T09:02:31.001Z</time></trkpt><trkpt lat="37.46920068024943" lon="14.07964746872466"><ele>492.00000000000006</ele><time>2026-04-15T09:02:37.002Z</time></trkpt><trkpt lat="37.469266799145295" lon="14.079648058580744"><ele>492.00000000000006</ele><time>2026-04-15T09:02:42.002Z</time></trkpt><trkpt lat="37.46932451814408" lon="14.079612025955416"><ele>492.0</ele><time>2026-04-15T09:02:47.002Z</time></trkpt><trkpt lat="37.46938178200204" lon="14.07955091711846"><ele>492.00000000000006</ele><time>2026-04-15T09:02:57.002Z</time></trkpt><trkpt lat="37.46941110477684" lon="14.079480580953888"><ele>492.00000000000006</ele><time>2026-04-15T09:03:03.002Z</time></trkpt><trkpt lat="37.46941309397004" lon="14.07939803906485"><ele>492.0</ele><time>2026-04-15T09:03:12.002Z</time></trkpt><trkpt lat="37.46936233870137" lon="14.079328095994226"><ele>492.00000000000006</ele><time>2026-04-15T09:03:19.002Z</time></trkpt><trkpt lat="37.46929113918325" lon="14.07931354700874"><ele>492.00000000000006</ele><time>2026-04-15T09:03:26.002Z</time></trkpt><trkpt lat="37.46922834505616" lon="14.079305845063681"><ele>492.00000000000006</ele><time>2026-04-15T09:03:32.001Z</time></trkpt><trkpt lat="37.46915794743034" lon="14.07932590001876"><ele>492.0</ele><time>2026-04-15T09:03:39.001Z</time></trkpt><trkpt lat="37.46909498528718" lon="14.07935670648226"><ele>492.00000000000006</ele><time>2026-04-15T09:03:44.001Z</time></trkpt><trkpt lat="37.46903232604595" lon="14.079394393431441"><ele>492.00000000000006</ele><time>2026-04-15T09:03:49.001Z</time></trkpt><trkpt lat="37.46896624758265" lon="14.079385086418826"><ele>492.0</ele><time>2026-04-15T09:03:54.001Z</time></trkpt><trkpt lat="37.46895513680223" lon="14.079305961013114"><ele>492.00000000000006</ele><time>2026-04-15T09:04:00.001Z</time></trkpt><trkpt lat="37.469006381376154" lon="14.079242983780283"><ele>492.00000000000006</ele><time>2026-04-15T09:04:06.001Z</time></trkpt><trkpt lat="37.469071519447624" lon="14.079191170964561"><ele>492.00000000000006</ele><time>2026-04-15T09:04:13.001Z</time></trkpt><trkpt lat="37.46912030916483" lon="14.079129828833066"><ele>492.0</ele><time>2026-04-15T09:04:18.001Z</time></trkpt><trkpt lat="37.46917956881828" lon="14.07909808130511"><ele>492.00000000000006</ele><time>2026-04-15T09:04:25.001Z</time></trkpt><trkpt lat="37.469240318826856" lon="14.079063002447235"><ele>492.00000000000006</ele><time>2026-04-15T09:04:32.001Z</time></trkpt><trkpt lat="37.46931486401236" lon="14.079094059314528"><ele>492.0</ele><time>2026-04-15T09:05:21.002Z</time></trkpt><trkpt lat="37.469357533303494" lon="14.079154491245351"><ele>492.00000000000006</ele><time>2026-04-15T09:05:27.002Z</time></trkpt><trkpt lat="37.469414653470714" lon="14.079203115649083"><ele>492.00000000000006</ele><time>2026-04-15T09:05:33.001Z</time></trkpt><trkpt lat="37.46948834279227" lon="14.079214870531736"><ele>492.00000000000006</ele><time>2026-04-15T09:05:39.001Z</time></trkpt><trkpt lat="37.469553885151434" lon="14.07920088697438"><ele>492.0</ele><time>2026-04-15T09:05:43.001Z</time></trkpt><trkpt lat="37.46961639665548" lon="14.079190217425465"><ele>492.00000000000006</ele><time>2026-04-15T09:05:47.001Z</time></trkpt><trkpt lat="37.469680489762226" lon="14.079163558704204"><ele>492.00000000000006</ele><time>2026-04-15T09:05:53.001Z</time></trkpt><trkpt lat="37.4697455137814" lon="14.079134016153759"><ele>492.0</ele><time>2026-04-15T09:06:05.001Z</time></trkpt><trkpt lat="37.46975948805205" lon="14.079042966352965"><ele>492.00000000000006</ele><time>2026-04-15T09:06:17.001Z</time></trkpt><trkpt lat="37.469759222190994" lon="14.078945933472884"><ele>492.00000000000006</ele><time>2026-04-15T09:06:23.001Z</time></trkpt><trkpt lat="37.4697430078176" lon="14.078848057433282"><ele>493.8571428571429</ele><time>2026-04-15T09:06:36.001Z</time></trkpt><trkpt lat="37.46972819721945" lon="14.078769945961076"><ele>495.7142857142857</ele><time>2026-04-15T09:06:39.001Z</time></trkpt><trkpt lat="37.46969311001407" lon="14.078700094783976"><ele>497.57142857142856</ele><time>2026-04-15T09:06:45.001Z</time></trkpt><trkpt lat="37.46966725701519" lon="14.078618515589834"><ele>499.42857142857144</ele><time>2026-04-15T09:06:52.001Z</time></trkpt><trkpt lat="37.46963257199371" lon="14.078544316054634"><ele>501.2857142857142</ele><time>2026-04-15T09:06:58.001Z</time></trkpt><trkpt lat="37.46959448784269" lon="14.07846526443411"><ele>503.1428571428571</ele><time>2026-04-15T09:07:05.001Z</time></trkpt><trkpt lat="37.46955330171371" lon="14.078392441299483"><ele>505.0</ele><time>2026-04-15T09:07:12.001Z</time></trkpt><trkpt lat="37.469514925792446" lon="14.078314262981845"><ele>506.0</ele><time>2026-04-15T09:07:19.001Z</time></trkpt><trkpt lat="37.469461982278666" lon="14.078248905112003"><ele>506.99999999999994</ele><time>2026-04-15T09:07:24.001Z</time></trkpt><trkpt lat="37.469414604837674" lon="14.07817796954613"><ele>508.0</ele><time>2026-04-15T09:07:30.001Z</time></trkpt><trkpt lat="37.469365635115366" lon="14.078123229394967"><ele>509.0</ele><time>2026-04-15T09:07:35.001Z</time></trkpt><trkpt lat="37.46930004511716" lon="14.078110269018977"><ele>509.99999999999994</ele><time>2026-04-15T09:07:41.001Z</time></trkpt><trkpt lat="37.46923237337414" lon="14.078105099092278"><ele>511.0</ele><time>2026-04-15T09:07:48.001Z</time></trkpt><trkpt lat="37.46918631115491" lon="14.078047137861574"><ele>512.0</ele><time>2026-04-15T09:07:54.001Z</time></trkpt><trkpt lat="37.46913577571163" lon="14.077993581341604"><ele>512.0</ele><time>2026-04-15T09:08:00.001Z</time></trkpt><trkpt lat="37.469106349144226" lon="14.077919371044109"><ele>511.99999999999994</ele><time>2026-04-15T09:08:06Z</time></trkpt><trkpt lat="37.46909946992954" lon="14.078007161870474"><ele>512.0</ele><time>2026-04-15T09:08:19Z</time></trkpt><trkpt lat="37.46912939775538" lon="14.078090587069607"><ele>512.0</ele><time>2026-04-15T09:08:25Z</time></trkpt><trkpt lat="37.46919137114461" lon="14.078154689581895"><ele>511.99999999999994</ele><time>2026-04-15T09:08:32Z</time></trkpt><trkpt lat="37.46924834581089" lon="14.078191885908291"><ele>512.0</ele><time>2026-04-15T09:08:36Z</time></trkpt><trkpt lat="37.46931627629207" lon="14.07822153625458"><ele>512.0</ele><time>2026-04-15T09:08:41Z</time></trkpt><trkpt lat="37.46938584795874" lon="14.078250454457422"><ele>511.1428571428571</ele><time>2026-04-15T09:08:46Z</time></trkpt><trkpt lat="37.46944142717555" lon="14.078304685000818"><ele>510.2857142857142</ele><time>2026-04-15T09:08:51Z</time></trkpt><trkpt lat="37.46948527184937" lon="14.078370149653027"><ele>509.42857142857144</ele><time>2026-04-15T09:08:56Z</time></trkpt><trkpt lat="37.46949131574328" lon="14.078451760715593"><ele>508.57142857142856</ele><time>2026-04-15T09:09:01Z</time></trkpt><trkpt lat="37.469525688907964" lon="14.07852650676154"><ele>507.7142857142857</ele><time>2026-04-15T09:09:05Z</time></trkpt><trkpt lat="37.46954735340185" lon="14.078604433762028"><ele>506.8571428571429</ele><time>2026-04-15T09:09:09Z</time></trkpt><trkpt lat="37.46957429138844" lon="14.078697659254216"><ele>506.00000000000006</ele><time>2026-04-15T09:09:15Z</time></trkpt><trkpt lat="37.4696026203276" lon="14.078770231300219"><ele>506.00000000000006</ele><time>2026-04-15T09:09:19Z</time></trkpt><trkpt lat="37.46960937072307" lon="14.078861372102098"><ele>506.0</ele><time>2026-04-15T09:09:24Z</time></trkpt><trkpt lat="37.469571143049585" lon="14.078943329819793"><ele>506.00000000000006</ele><time>2026-04-15T09:09:29.001Z</time></trkpt><trkpt lat="37.46950675555399" lon="14.078940456063227"><ele>506.00000000000006</ele><time>2026-04-15T09:09:34.001Z</time></trkpt><trkpt lat="37.46945694186411" lon="14.07887896386394"><ele>506.0</ele><time>2026-04-15T09:09:41.001Z</time></trkpt><trkpt lat="37.469456608872456" lon="14.078792581065336"><ele>506.00000000000006</ele><time>2026-04-15T09:09:47Z</time></trkpt><trkpt lat="37.469425114954824" lon="14.078717407818115"><ele>506.00000000000006</ele><time>2026-04-15T09:09:55Z</time></trkpt><trkpt lat="37.46940466702025" lon="14.078628725084045"><ele>506.00000000000006</ele><time>2026-04-15T09:10:04Z</time></trkpt><trkpt lat="37.469359642537796" lon="14.078562869050778"><ele>506.0</ele><time>2026-04-15T09:10:10Z</time></trkpt><trkpt lat="37.469311446892725" lon="14.078508782820089"><ele>506.00000000000006</ele><time>2026-04-15T09:10:15Z</time></trkpt><trkpt lat="37.46924828775256" lon="14.078475753554129"><ele>506.00000000000006</ele><time>2026-04-15T09:10:22Z</time></trkpt><trkpt lat="37.46918143191017" lon="14.078455383087237"><ele>506.0</ele><time>2026-04-15T09:10:28Z</time></trkpt><trkpt lat="37.469146329349435" lon="14.078387985746309"><ele>506.00000000000006</ele><time>2026-04-15T09:10:34Z</time></trkpt><trkpt lat="37.46909659511254" lon="14.078305382917627"><ele>506.00000000000006</ele><time>2026-04-15T09:10:49Z</time></trkpt><trkpt lat="37.469035707813006" lon="14.078272445462071"><ele>506.8571428571429</ele><time>2026-04-15T09:10:56Z</time></trkpt><trkpt lat="37.46897062839549" lon="14.078237814882465"><ele>507.7142857142857</ele><time>2026-04-15T09:11:02Z</time></trkpt><trkpt lat="37.46890563190175" lon="14.07820604086718"><ele>508.57142857142856</ele><time>2026-04-15T09:11:09Z</time></trkpt><trkpt lat="37.46884250121552" lon="14.078175524704005"><ele>509.42857142857144</ele><time>2026-04-15T09:11:15Z</time></trkpt><trkpt lat="37.468787197708394" lon="14.078121827219302"><ele>510.2857142857142</ele><time>2026-04-15T09:11:22Z</time></trkpt><trkpt lat="37.46872730862423" lon="14.078090313016968"><ele>511.1428571428571</ele><time>2026-04-15T09:11:28Z</time></trkpt><trkpt lat="37.468655461790775" lon="14.078062155291207"><ele>512.0</ele><time>2026-04-15T09:11:35Z</time></trkpt><trkpt lat="37.46860312874695" lon="14.078007845159755"><ele>512.0</ele><time>2026-04-15T09:11:40Z</time></trkpt><trkpt lat="37.468537696275035" lon="14.07797599186062"><ele>511.99999999999994</ele><time>2026-04-15T09:11:46Z</time></trkpt><trkpt lat="37.46847762644005" lon="14.077946301944575"><ele>512.0</ele><time>2026-04-15T09:11:51Z</time></trkpt><trkpt lat="37.46841950626538" lon="14.07790506062982"><ele>512.0</ele><time>2026-04-15T09:11:56Z</time></trkpt><trkpt lat="37.46836602208847" lon="14.07786002635411"><ele>511.99999999999994</ele><time>2026-04-15T09:12:01Z</time></trkpt><trkpt lat="37.46831497857333" lon="14.077792684611595"><ele>512.0</ele><time>2026-04-15T09:12:07Z</time></trkpt><trkpt lat="37.46826121679339" lon="14.077733125638725"><ele>512.0</ele><time>2026-04-15T09:12:14Z</time></trkpt><trkpt lat="37.468205327265665" lon="14.077684444144701"><ele>512.0</ele><time>2026-04-15T09:12:20Z</time></trkpt><trkpt lat="37.4681591336703" lon="14.077614879453872"><ele>511.99999999999994</ele><time>2026-04-15T09:12:28Z</time></trkpt><trkpt lat="37.46811050517636" lon="14.077554189963598"><ele>512.0</ele><time>2026-04-15T09:12:38Z</time></trkpt><trkpt lat="37.46806667285705" lon="14.077483937075128"><ele>512.0</ele><time>2026-04-15T09:12:48Z</time></trkpt><trkpt lat="37.46805410381238" lon="14.07740433672588"><ele>511.99999999999994</ele><time>2026-04-15T09:12:54Z</time></trkpt><trkpt lat="37.46809516608582" lon="14.077335014522546"><ele>512.0</ele><time>2026-04-15T09:13:00Z</time></trkpt><trkpt lat="37.46815164317683" lon="14.07728145269685"><ele>512.0</ele><time>2026-04-15T09:13:06Z</time></trkpt><trkpt lat="37.46821355122451" lon="14.077299093346197"><ele>512.0</ele><time>2026-04-15T09:13:11Z</time></trkpt><trkpt lat="37.46826927999078" lon="14.077354840282363"><ele>511.99999999999994</ele><time>2026-04-15T09:13:16.999Z</time></trkpt><trkpt lat="37.468321186880374" lon="14.07741869034881"><ele>512.0</ele><time>2026-04-15T09:13:21.999Z</time></trkpt><trkpt lat="37.46834400234496" lon="14.077492895426847"><ele>512.0</ele><time>2026-04-15T09:13:27.999Z</time></trkpt><trkpt lat="37.46838611807148" lon="14.077564172321935"><ele>511.99999999999994</ele><time>2026-04-15T09:13:32.999Z</time></trkpt><trkpt lat="37.468419921260384" lon="14.077647836586864"><ele>512.0</ele><time>2026-04-15T09:13:38.999Z</time></trkpt><trkpt lat="37.468472892725174" lon="14.077696429393791"><ele>512.0</ele><time>2026-04-15T09:13:44Z</time></trkpt><trkpt lat="37.46852278032034" lon="14.077751606997435"><ele>512.0</ele><time>2026-04-15T09:13:49Z</time></trkpt><trkpt lat="37.46855937770278" lon="14.07783142850552"><ele>511.99999999999994</ele><time>2026-04-15T09:13:56Z</time></trkpt><trkpt lat="37.468625184167195" lon="14.077867483637016"><ele>512.0</ele><time>2026-04-15T09:14:02Z</time></trkpt><trkpt lat="37.468695481485554" lon="14.077856649192963"><ele>512.0</ele><time>2026-04-15T09:14:08Z</time></trkpt><trkpt lat="37.46876594871981" lon="14.077840807231329"><ele>511.99999999999994</ele><time>2026-04-15T09:14:13Z</time></trkpt><trkpt lat="37.468822887694515" lon="14.077791037329247"><ele>512.0</ele><time>2026-04-15T09:14:18Z</time></trkpt><trkpt lat="37.46884401216581" lon="14.07771129356875"><ele>512.0</ele><time>2026-04-15T09:14:24Z</time></trkpt><trkpt lat="37.46882340689335" lon="14.07763260486584"><ele>512.0</ele><time>2026-04-15T09:14:30Z</time></trkpt><trkpt lat="37.46877597330367" lon="14.077574349300054"><ele>511.99999999999994</ele><time>2026-04-15T09:14:37Z</time></trkpt><trkpt lat="37.46871770187258" lon="14.077527859902338"><ele>512.0</ele><time>2026-04-15T09:14:44Z</time></trkpt><trkpt lat="37.46866392124829" lon="14.077461202389745"><ele>512.0</ele><time>2026-04-15T09:14:49Z</time></trkpt><trkpt lat="37.468611024346764" lon="14.077415884830042"><ele>511.99999999999994</ele><time>2026-04-15T09:14:53.999Z</time></trkpt><trkpt lat="37.46855829944162" lon="14.077353798103504"><ele>512.0</ele><time>2026-04-15T09:14:59.999Z</time></trkpt><trkpt lat="37.46851032696901" lon="14.077289583277578"><ele>512.0</ele><time>2026-04-15T09:15:05.999Z</time></trkpt><trkpt lat="37.46847090298565" lon="14.077212040565287"><ele>513.4285714285714</ele><time>2026-04-15T09:15:11.999Z</time></trkpt><trkpt lat="37.46847652833608" lon="14.077126117531662"><ele>514.8571428571428</ele><time>2026-04-15T09:15:18.999Z</time></trkpt><trkpt lat="37.46848422811061" lon="14.077045539063255"><ele>516.2857142857142</ele><time>2026-04-15T09:15:23.999Z</time></trkpt><trkpt lat="37.46850061292817" lon="14.07695056618001"><ele>517.7142857142857</ele><time>2026-04-15T09:15:30.999Z</time></trkpt><trkpt lat="37.46851063643426" lon="14.076867544650222"><ele>519.1428571428571</ele><time>2026-04-15T09:15:36.999Z</time></trkpt><trkpt lat="37.46853847738237" lon="14.076793411567877"><ele>520.5714285714286</ele><time>2026-04-15T09:15:43.999Z</time></trkpt><trkpt lat="37.46853845704593" lon="14.076707064873677"><ele>522.0</ele><time>2026-04-15T09:15:50.999Z</time></trkpt><trkpt lat="37.46849267951788" lon="14.076650506087244"><ele>522.0</ele><time>2026-04-15T09:16:03.999Z</time></trkpt><trkpt lat="37.468427650121484" lon="14.076672400813278"><ele>522.0</ele><time>2026-04-15T09:16:09.999Z</time></trkpt><trkpt lat="37.46836307892295" lon="14.076726075806302"><ele>522.0</ele><time>2026-04-15T09:16:15Z</time></trkpt><trkpt lat="37.46830459612392" lon="14.076781253897275"><ele>522.0</ele><time>2026-04-15T09:16:21Z</time></trkpt><trkpt lat="37.468248953560106" lon="14.076828203547311"><ele>522.0</ele><time>2026-04-15T09:16:27Z</time></trkpt><trkpt lat="37.46819800036209" lon="14.076891059669187"><ele>522.0</ele><time>2026-04-15T09:16:32Z</time></trkpt><trkpt lat="37.46814990770805" lon="14.076966368071163"><ele>522.0</ele><time>2026-04-15T09:16:38Z</time></trkpt><trkpt lat="37.468103945535496" lon="14.077022971407612"><ele>522.0</ele><time>2026-04-15T09:16:42.999Z</time></trkpt><trkpt lat="37.46805197912597" lon="14.077075993977623"><ele>522.0</ele><time>2026-04-15T09:16:47.999Z</time></trkpt><trkpt lat="37.467983372117175" lon="14.077103839221008"><ele>522.0</ele><time>2026-04-15T09:16:53.999Z</time></trkpt><trkpt lat="37.46793746501467" lon="14.077042110410384"><ele>522.0</ele><time>2026-04-15T09:17:01.999Z</time></trkpt><trkpt lat="37.46796855921758" lon="14.076973114176637"><ele>522.0</ele><time>2026-04-15T09:17:06.999Z</time></trkpt><trkpt lat="37.46800771679388" lon="14.07690921513168"><ele>522.0</ele><time>2026-04-15T09:17:11.999Z</time></trkpt><trkpt lat="37.46806012914831" lon="14.07686443502273"><ele>522.0</ele><time>2026-04-15T09:17:16.999Z</time></trkpt><trkpt lat="37.46810953574191" lon="14.076798437432393"><ele>522.0</ele><time>2026-04-15T09:17:21.999Z</time></trkpt><trkpt lat="37.468159802646475" lon="14.07673144132112"><ele>522.0</ele><time>2026-04-15T09:17:27.999Z</time></trkpt><trkpt lat="37.46821810120485" lon="14.076680338116697"><ele>522.0</ele><time>2026-04-15T09:17:34.999Z</time></trkpt><trkpt lat="37.468270696443525" lon="14.076608649719924"><ele>522.0</ele><time>2026-04-15T09:17:40.999Z</time></trkpt><trkpt lat="37.46832409506738" lon="14.07655544401237"><ele>522.0</ele><time>2026-04-15T09:17:47.999Z</time></trkpt><trkpt lat="37.46833098931079" lon="14.076475716037967"><ele>522.0</ele><time>2026-04-15T09:17:53.999Z</time></trkpt><trkpt lat="37.46827891517767" lon="14.076427439355655"><ele>522.0</ele><time>2026-04-15T09:17:58.999Z</time></trkpt><trkpt lat="37.468208042200345" lon="14.076435649023331"><ele>522.0</ele><time>2026-04-15T09:18:03.999Z</time></trkpt><trkpt lat="37.46814130098614" lon="14.076461612414752"><ele>522.0</ele><time>2026-04-15T09:18:08.999Z</time></trkpt><trkpt lat="37.46809463087869" lon="14.076521441542154"><ele>522.0</ele><time>2026-04-15T09:18:13.999Z</time></trkpt><trkpt lat="37.468037293078275" lon="14.076580932043832"><ele>522.0</ele><time>2026-04-15T09:18:19.999Z</time></trkpt><trkpt lat="37.46798616945538" lon="14.07664206984616"><ele>522.0</ele><time>2026-04-15T09:18:25.999Z</time></trkpt><trkpt lat="37.46792481939906" lon="14.076709973353463"><ele>522.0</ele><time>2026-04-15T09:18:32.999Z</time></trkpt><trkpt lat="37.467880827492635" lon="14.076775532494404"><ele>522.0</ele><time>2026-04-15T09:18:37.999Z</time></trkpt><trkpt lat="37.46782907272642" lon="14.076828304945918"><ele>525.0</ele><time>2026-04-15T09:18:42.999Z</time></trkpt><trkpt lat="37.46776165909977" lon="14.076811135978488"><ele>525.0</ele><time>2026-04-15T09:18:49.999Z</time></trkpt><trkpt lat="37.46775701708253" lon="14.076730266594554"><ele>525.0</ele><time>2026-04-15T09:18:56Z</time></trkpt><trkpt lat="37.46780107781173" lon="14.076654392232443"><ele>525.0</ele><time>2026-04-15T09:19:02Z</time></trkpt><trkpt lat="37.46784998821424" lon="14.076593192264395"><ele>534.0</ele><time>2026-04-15T09:19:08Z</time></trkpt><trkpt lat="37.46789765068019" lon="14.076529431718553"><ele>534.0</ele><time>2026-04-15T09:19:15Z</time></trkpt></trkseg></trk></gpx>